Time;durP1;ratioP1;P1;durP2;ratioP2;P2;SDS_P1;SDS_P2;PMS_P1;PMS_P2;Temp;Humidity;BMP_temperature;BMP_pressure;BME280_temperature;BME280_humidity;BME280_pressure;Samples;Min_cycle;Max_cycle;Signal;HPM_P1;HPM_P2
2022/06/08 00:02:13;;;;;;;3.33;1.00;;;16.80;99.90;;;;;;4959062;28;20030;-82
2022/06/08 00:04:38;;;;;;;1.67;1.15;;;16.80;99.90;;;;;;4959119;28;20082;-82
2022/06/08 00:07:04;;;;;;;0.88;0.70;;;16.70;99.90;;;;;;4950362;29;20055;-82
2022/06/08 00:09:30;;;;;;;3.97;0.90;;;16.70;99.90;;;;;;4934544;29;20082;-82
2022/06/08 00:11:56;;;;;;;2.30;0.80;;;16.70;99.90;;;;;;4941026;28;20018;-82
2022/06/08 00:14:23;;;;;;;0.70;0.70;;;16.80;99.90;;;;;;4971841;28;20054;-82
2022/06/08 00:16:49;;;;;;;0.88;0.70;;;16.80;99.90;;;;;;4952607;29;20030;-82
2022/06/08 00:19:14;;;;;;;1.35;0.63;;;16.80;99.90;;;;;;4950495;29;20019;-82
2022/06/08 00:21:43;;;;;;;0.82;0.70;;;16.80;99.90;;;;;;4953976;29;20401;-82
2022/06/08 00:24:09;;;;;;;0.82;0.50;;;16.90;99.90;;;;;;4937511;29;20029;-82
2022/06/08 00:26:36;;;;;;;3.13;0.98;;;16.90;99.90;;;;;;4954130;29;20395;-82
2022/06/08 00:29:04;;;;;;;6.07;1.77;;;16.90;99.90;;;;;;4936426;28;20024;-82
2022/06/08 00:31:30;;;;;;;1.33;0.80;;;16.90;99.90;;;;;;4937855;29;20035;-82
2022/06/08 00:33:55;;;;;;;1.13;0.82;;;16.80;99.90;;;;;;4937027;29;20023;-82
2022/06/08 00:36:21;;;;;;;1.10;1.00;;;16.80;99.90;;;;;;4936874;29;20023;-82
2022/06/08 00:38:46;;;;;;;2.67;0.88;;;16.80;99.90;;;;;;4965030;28;20035;-82
2022/06/08 00:41:58;;;;;;;0.65;0.65;;;16.80;99.90;;;;;;4940637;29;20037;-82
2022/06/08 00:44:30;;;;;;;1.33;0.65;;;16.80;99.90;;;;;;4947173;28;20042;-82
2022/06/08 00:46:58;;;;;;;2.63;1.00;;;16.80;99.90;;;;;;4936031;29;20130;-82
2022/06/08 00:49:29;;;;;;;3.90;1.85;;;16.80;99.90;;;;;;4928406;29;20042;-82
2022/06/08 00:51:58;;;;;;;1.33;0.73;;;16.70;99.90;;;;;;4941746;29;20035;-81
2022/06/08 00:54:29;;;;;;;2.53;1.23;;;16.60;99.90;;;;;;4946256;29;20035;-82
2022/06/08 00:57:04;;;;;;;2.28;0.98;;;16.60;99.90;;;;;;4946344;28;20396;-82
2022/06/08 00:59:30;;;;;;;4.90;1.97;;;16.60;99.90;;;;;;4960356;28;20035;-82
2022/06/08 01:01:57;;;;;;;1.05;0.85;;;16.50;99.90;;;;;;4947749;28;20034;-82
2022/06/08 01:04:23;;;;;;;1.10;0.98;;;16.50;99.90;;;;;;4975054;28;20042;-82
2022/06/08 01:06:58;;;;;;;1.85;0.82;;;16.50;99.90;;;;;;4945995;29;20027;-82
2022/06/08 01:09:32;;;;;;;2.33;0.90;;;16.40;99.90;;;;;;4947858;29;20031;-82
2022/06/08 01:12:01;;;;;;;1.05;0.90;;;16.40;99.90;;;;;;4948899;29;20074;-82
2022/06/08 01:14:28;;;;;;;1.67;0.95;;;16.40;99.90;;;;;;4939918;29;20078;-82
2022/06/08 01:17:01;;;;;;;1.10;1.00;;;16.40;99.90;;;;;;4958069;29;20083;-82
2022/06/08 01:19:27;;;;;;;3.50;1.00;;;16.40;99.90;;;;;;4939867;29;20035;-82
2022/06/08 01:21:57;;;;;;;0.95;0.88;;;16.40;99.90;;;;;;4958075;28;20026;-82
2022/06/08 01:24:23;;;;;;;1.45;1.15;;;16.40;99.90;;;;;;4956483;29;20038;-82
2022/06/08 01:27:14;;;;;;;2.10;0.75;;;16.50;99.90;;;;;;4957454;28;20034;-82
2022/06/08 01:29:43;;;;;;;2.78;1.08;;;16.50;99.90;;;;;;4952102;29;20031;-82
2022/06/08 01:32:23;;;;;;;0.98;0.98;;;16.50;99.90;;;;;;4951463;28;20472;-82
2022/06/08 01:34:59;;;;;;;1.33;1.10;;;16.60;99.90;;;;;;4951095;28;20031;-82
2022/06/08 01:37:45;;;;;;;2.13;0.80;;;16.60;99.90;;;;;;4953932;28;20027;-83
2022/06/08 01:40:47;;;;;;;3.20;0.98;;;16.60;99.90;;;;;;4950425;28;20023;-82
2022/06/08 01:43:48;;;;;;;0.98;0.80;;;16.60;99.90;;;;;;4939359;29;20589;-81
2022/06/08 01:46:26;;;;;;;2.08;1.20;;;16.60;99.90;;;;;;4956506;29;20046;-82
2022/06/08 01:49:27;;;;;;;1.50;0.80;;;16.50;99.90;;;;;;4957348;29;20067;-81
2022/06/08 01:52:02;;;;;;;1.10;1.00;;;16.60;99.90;;;;;;4934328;29;20505;-82
2022/06/08 01:54:59;;;;;;;3.33;1.30;;;16.60;99.90;;;;;;4942520;28;20063;-82
2022/06/08 01:57:48;;;;;;;4.70;1.02;;;16.50;99.90;;;;;;4944105;28;20299;-82
2022/06/08 02:00:21;;;;;;;1.30;0.90;;;16.50;99.90;;;;;;4956804;29;20128;-82
2022/06/08 02:03:26;;;;;;;5.95;1.15;;;16.50;99.90;;;;;;4940274;28;20055;-82
2022/06/08 02:06:19;;;;;;;2.35;1.20;;;16.50;99.90;;;;;;4914604;29;20114;-82
2022/06/08 02:08:57;;;;;;;2.20;1.30;;;16.50;99.90;;;;;;4916621;29;20025;-82
2022/06/08 02:11:34;;;;;;;7.28;1.00;;;16.40;99.90;;;;;;4943252;28;20051;-82
2022/06/08 02:14:07;;;;;;;1.20;1.00;;;16.50;99.90;;;;;;4957868;28;20028;-81
2022/06/08 02:16:52;;;;;;;4.40;1.00;;;16.50;99.90;;;;;;4956869;29;20031;-81
2022/06/08 02:19:30;;;;;;;1.25;0.80;;;16.50;99.90;;;;;;4955830;29;20038;-81
2022/06/08 02:22:06;;;;;;;2.67;1.17;;;16.60;99.90;;;;;;4955926;29;20114;-82
2022/06/08 02:24:37;;;;;;;;;;;16.60;99.90;;;;;;4950279;29;20035;-82
2022/06/08 02:27:13;;;;;;;3.28;1.30;;;16.60;99.90;;;;;;4951432;29;19922;-81
2022/06/08 02:29:56;;;;;;;2.65;1.00;;;16.70;99.90;;;;;;4973259;28;20366;-82
2022/06/08 02:35:34;;;;;;;5.30;1.20;;;16.70;99.90;;;;;;4950060;29;20140;-82
2022/06/08 02:38:08;;;;;;;1.60;0.80;;;16.70;99.90;;;;;;4960174;28;20285;-82
2022/06/08 02:40:37;;;;;;;1.98;1.15;;;16.70;99.90;;;;;;4969387;28;20479;-82
2022/06/08 02:43:12;;;;;;;3.88;1.17;;;16.70;99.90;;;;;;4956986;28;20051;-82
2022/06/08 02:45:44;;;;;;;0.93;0.88;;;16.80;99.90;;;;;;4974027;28;20159;-82
2022/06/08 02:48:13;;;;;;;2.30;1.08;;;16.80;99.90;;;;;;4953540;28;20752;-82
2022/06/08 02:50:52;;;;;;;2.90;1.00;;;16.80;99.90;;;;;;4956116;29;20029;-82
2022/06/08 02:53:17;;;;;;;1.60;1.10;;;16.80;99.90;;;;;;4954249;28;20491;-82
2022/06/08 02:56:05;;;;;;;1.70;1.02;;;16.70;99.90;;;;;;4937428;29;20043;-81
2022/06/08 02:58:43;;;;;;;2.25;1.27;;;16.70;99.90;;;;;;4956249;29;20039;-82
2022/06/08 03:01:23;;;;;;;1.55;1.30;;;16.60;99.90;;;;;;4948341;28;20085;-82
2022/06/08 03:03:56;;;;;;;0.80;0.80;;;16.60;99.90;;;;;;4964215;28;20071;-82
2022/06/08 03:06:26;;;;;;;0.95;0.90;;;16.60;99.90;;;;;;4939897;29;20071;-82
2022/06/08 03:09:00;;;;;;;0.90;0.88;;;16.60;99.90;;;;;;4939927;29;20027;-83
2022/06/08 03:11:32;;;;;;;2.67;1.00;;;16.60;99.90;;;;;;4951305;29;20067;-82
2022/06/08 03:14:13;;;;;;;1.83;1.00;;;16.60;99.90;;;;;;4954911;29;20050;-82
2022/06/08 03:16:50;;;;;;;1.08;0.98;;;16.60;99.90;;;;;;4948034;29;20035;-82
2022/06/08 03:19:16;;;;;;;1.25;0.88;;;16.50;99.90;;;;;;4949933;28;20027;-82
2022/06/08 03:21:41;;;;;;;1.00;0.82;;;16.50;99.90;;;;;;4957590;28;20411;-82
2022/06/08 03:24:07;;;;;;;3.42;1.23;;;16.50;99.90;;;;;;4935371;29;20114;-82
2022/06/08 03:26:39;;;;;;;2.72;0.82;;;16.50;99.90;;;;;;4949936;29;20027;-82
2022/06/08 03:29:05;;;;;;;2.38;1.15;;;16.40;99.90;;;;;;4949400;28;20428;-82
2022/06/08 03:31:31;;;;;;;1.80;1.08;;;16.30;99.90;;;;;;4958602;28;20078;-82
2022/06/08 03:33:56;;;;;;;4.30;1.10;;;16.20;99.90;;;;;;4966855;28;20181;-82
2022/06/08 03:36:24;;;;;;;1.95;0.95;;;16.20;99.90;;;;;;4950382;28;20074;-82
2022/06/08 03:38:49;;;;;;;1.38;0.90;;;16.20;99.90;;;;;;4953584;28;20416;-82
2022/06/08 03:41:16;;;;;;;1.13;1.02;;;16.10;99.90;;;;;;4955055;29;20071;-82
2022/06/08 03:43:42;;;;;;;2.13;0.85;;;16.00;99.90;;;;;;4954276;28;20055;-82
2022/06/08 03:46:10;;;;;;;1.52;0.93;;;16.00;99.90;;;;;;4951511;28;20065;-82
2022/06/08 03:48:37;;;;;;;1.75;0.93;;;15.90;99.90;;;;;;4940878;29;20035;-83
2022/06/08 03:51:05;;;;;;;1.67;0.98;;;15.80;99.90;;;;;;4937280;29;20035;-82
2022/06/08 03:53:43;;;;;;;0.90;0.90;;;15.80;99.90;;;;;;4931713;29;20031;-83
2022/06/08 03:56:10;;;;;;;2.33;1.23;;;15.80;99.90;;;;;;4946490;29;20039;-83
2022/06/08 03:58:35;;;;;;;2.30;1.00;;;15.80;99.90;;;;;;4953693;29;20089;-83
2022/06/08 04:01:03;;;;;;;4.28;1.20;;;15.80;99.90;;;;;;4921330;29;20122;-82
2022/06/08 04:03:30;;;;;;;1.80;1.25;;;15.80;99.90;;;;;;4943452;29;20038;-83
2022/06/08 04:05:58;;;;;;;2.13;1.10;;;15.90;99.90;;;;;;4953151;28;20054;-83
2022/06/08 04:08:24;;;;;;;0.93;0.90;;;15.90;99.90;;;;;;4954935;29;20027;-82
2022/06/08 04:10:58;;;;;;;2.08;1.17;;;16.00;99.90;;;;;;4944836;28;20019;-82
2022/06/08 04:13:25;;;;;;;1.90;1.17;;;16.00;99.90;;;;;;4947365;29;20031;-82
2022/06/08 04:15:50;;;;;;;5.75;1.35;;;16.10;99.90;;;;;;4954440;28;20376;-82
2022/06/08 04:18:20;;;;;;;2.65;1.17;;;16.20;99.90;;;;;;4936767;29;20027;-83
2022/06/08 04:20:49;;;;;;;2.28;1.35;;;16.30;99.90;;;;;;4937040;29;20615;-83
2022/06/08 04:23:16;;;;;;;1.30;1.20;;;16.30;99.90;;;;;;4935403;29;20474;-83
2022/06/08 04:25:43;;;;;;;4.90;1.33;;;16.40;99.90;;;;;;4938461;29;20551;-83
2022/06/08 04:28:10;;;;;;;3.70;1.08;;;16.50;99.90;;;;;;4954526;29;20035;-83
2022/06/08 04:30:36;;;;;;;3.10;1.33;;;16.60;99.90;;;;;;4937340;29;20595;-83
2022/06/08 04:33:03;;;;;;;1.00;1.00;;;16.60;99.90;;;;;;4954744;29;20106;-83
2022/06/08 04:35:29;;;;;;;2.92;1.35;;;16.60;99.90;;;;;;4943708;29;20028;-83
2022/06/08 04:37:54;;;;;;;1.17;1.10;;;16.60;99.90;;;;;;4937496;29;20055;-83
2022/06/08 04:40:22;;;;;;;2.80;1.13;;;16.60;99.90;;;;;;4954336;29;20035;-82
2022/06/08 04:42:48;;;;;;;10.02;1.92;;;16.60;99.90;;;;;;4954471;29;20024;-83
2022/06/08 04:45:14;;;;;;;2.75;1.33;;;16.70;99.90;;;;;;4954575;29;20039;-83
2022/06/08 04:47:41;;;;;;;2.78;1.45;;;16.70;99.90;;;;;;4937200;29;20034;-83
2022/06/08 04:50:08;;;;;;;2.47;1.20;;;16.80;99.90;;;;;;4936753;29;20027;-83
2022/06/08 04:52:35;;;;;;;1.20;1.10;;;16.70;99.90;;;;;;4937142;29;20059;-83
2022/06/08 04:55:01;;;;;;;3.22;1.27;;;16.70;99.90;;;;;;4954297;29;20024;-84
2022/06/08 04:57:27;;;;;;;3.55;0.90;;;16.70;99.90;;;;;;4937121;29;20047;-83
2022/06/08 04:59:52;;;;;;;1.42;0.88;;;16.70;99.90;;;;;;4948243;29;20042;-83
2022/06/08 05:05:35;;;;;;;1.00;1.00;;;16.80;99.90;;;;;;4954320;29;20530;-83
2022/06/08 05:08:01;;;;;;;1.15;0.90;;;16.80;99.90;;;;;;4954352;29;20031;-83
2022/06/08 05:10:31;;;;;;;1.15;1.10;;;16.80;99.90;;;;;;4931825;29;20038;-83
2022/06/08 05:12:58;;;;;;;1.88;1.08;;;16.80;99.90;;;;;;4954108;29;20055;-83
2022/06/08 05:15:29;;;;;;;4.13;1.38;;;16.90;99.90;;;;;;4937094;29;20026;-83
2022/06/08 05:17:56;;;;;;;1.88;1.20;;;17.00;99.90;;;;;;4954020;29;20035;-84
2022/06/08 05:20:24;;;;;;;4.45;1.35;;;17.10;99.90;;;;;;4953948;29;20364;-83
2022/06/08 05:22:50;;;;;;;1.65;0.90;;;17.10;99.90;;;;;;4954090;29;20078;-83
2022/06/08 05:25:24;;;;;;;1.55;1.30;;;17.20;99.90;;;;;;4962245;28;20028;-83
2022/06/08 05:27:50;;;;;;;2.88;0.95;;;17.20;99.90;;;;;;4946583;28;20066;-83
2022/06/08 05:30:16;;;;;;;0.88;0.88;;;17.20;99.90;;;;;;4964120;28;20081;-83
2022/06/08 05:32:42;;;;;;;3.67;1.30;;;17.30;99.90;;;;;;4954649;28;20419;-83
2022/06/08 05:35:08;;;;;;;2.00;1.10;;;17.30;99.90;;;;;;4946308;28;20082;-83
2022/06/08 05:37:34;;;;;;;1.48;1.02;;;17.30;99.90;;;;;;4969413;28;20028;-83
2022/06/08 05:40:11;;;;;;;1.27;0.98;;;17.30;99.90;;;;;;4957005;29;20412;-84
2022/06/08 05:42:38;;;;;;;0.90;0.90;;;17.40;99.90;;;;;;4959084;28;20035;-84
2022/06/08 05:45:05;;;;;;;0.82;0.80;;;17.40;99.90;;;;;;4945941;29;20023;-84
2022/06/08 05:47:30;;;;;;;1.50;0.70;;;17.50;99.90;;;;;;4956968;29;20046;-84
2022/06/08 05:49:56;;;;;;;6.85;0.77;;;17.50;99.90;;;;;;4956855;29;20027;-84
2022/06/08 05:52:23;;;;;;;5.15;1.20;;;17.50;99.90;;;;;;4957317;29;20016;-84
2022/06/08 05:54:48;;;;;;;1.17;1.00;;;17.60;99.90;;;;;;4956936;28;20020;-84
2022/06/08 05:57:14;;;;;;;1.63;1.00;;;17.60;99.90;;;;;;4953086;29;20057;-84
2022/06/08 05:59:51;;;;;;;1.17;0.85;;;17.60;99.90;;;;;;4954943;28;20031;-84
2022/06/08 06:02:17;;;;;;;0.68;0.68;;;17.60;99.90;;;;;;4931581;28;20020;-84
2022/06/08 06:04:43;;;;;;;2.15;1.00;;;17.60;99.90;;;;;;4964998;28;20031;-84
2022/06/08 06:07:12;;;;;;;1.42;0.80;;;17.70;99.90;;;;;;4956382;28;20070;-84
2022/06/08 06:09:39;;;;;;;2.28;1.17;;;17.70;99.90;;;;;;4955883;28;20023;-84
2022/06/08 06:12:05;;;;;;;0.77;0.77;;;17.70;99.90;;;;;;4945055;28;20035;-84
2022/06/08 06:14:32;;;;;;;1.60;1.00;;;17.80;99.90;;;;;;4957066;28;20150;-84
2022/06/08 06:16:57;;;;;;;2.58;1.15;;;17.90;99.90;;;;;;4957872;28;20370;-83
2022/06/08 06:19:24;;;;;;;2.13;1.00;;;17.90;99.90;;;;;;4961537;28;20035;-84
2022/06/08 06:21:50;;;;;;;2.20;0.90;;;17.90;99.90;;;;;;4953817;28;20135;-84
2022/06/08 06:24:16;;;;;;;0.77;0.77;;;17.90;99.90;;;;;;4959297;28;20030;-83
2022/06/08 06:26:41;;;;;;;0.75;0.68;;;18.00;99.90;;;;;;4945762;29;20026;-84
2022/06/08 06:29:07;;;;;;;1.00;1.00;;;18.00;99.90;;;;;;4958619;28;20027;-84
2022/06/08 06:31:47;;;;;;;2.97;0.93;;;18.10;99.90;;;;;;4955470;28;20027;-83
2022/06/08 06:34:15;;;;;;;1.75;1.05;;;18.10;99.90;;;;;;4951415;28;20082;-84
2022/06/08 06:36:41;;;;;;;1.85;0.88;;;18.10;99.90;;;;;;4974597;28;20035;-83
2022/06/08 06:39:17;;;;;;;1.60;0.75;;;18.10;99.90;;;;;;4955570;28;20033;-84
2022/06/08 06:41:44;;;;;;;4.80;1.60;;;18.10;99.90;;;;;;4939955;28;20054;-83
2022/06/08 06:44:10;;;;;;;1.38;0.90;;;18.20;99.90;;;;;;4940626;29;20114;-83
2022/06/08 06:46:36;;;;;;;5.65;1.05;;;18.30;99.90;;;;;;4939051;29;20443;-83
2022/06/08 06:49:02;;;;;;;2.47;0.63;;;18.30;99.90;;;;;;4955173;29;20031;-84
2022/06/08 06:51:35;;;;;;;2.45;0.82;;;18.40;99.90;;;;;;4952711;29;20476;-83
2022/06/08 06:54:02;;;;;;;2.05;0.70;;;18.50;99.90;;;;;;4943462;28;20460;-83
2022/06/08 06:56:28;;;;;;;0.75;0.38;;;18.60;99.90;;;;;;4948735;28;20106;-83
2022/06/08 06:58:55;;;;;;;1.77;0.70;;;18.60;99.90;;;;;;4955393;29;20759;-83
2022/06/08 07:01:20;;;;;;;0.63;0.63;;;18.70;99.90;;;;;;4951038;28;20020;-83
2022/06/08 07:03:46;;;;;;;2.38;0.93;;;18.80;99.90;;;;;;4936668;29;20482;-82
2022/06/08 07:06:12;;;;;;;0.65;0.65;;;18.90;99.90;;;;;;4936769;29;20032;-82
2022/06/08 07:08:38;;;;;;;0.80;0.65;;;19.00;99.90;;;;;;4943630;29;20023;-82
2022/06/08 07:13:50;;;;;;;0.80;0.75;;;18.70;99.90;;;;;;4955580;29;20033;-82
2022/06/08 07:16:16;;;;;;;3.28;1.83;;;18.60;99.90;;;;;;4955085;29;20489;-83
2022/06/08 07:18:42;;;;;;;2.00;0.80;;;18.40;99.90;;;;;;4973536;28;20579;-82
2022/06/08 07:21:09;;;;;;;1.85;1.00;;;18.40;99.90;;;;;;4937748;29;20118;-82
2022/06/08 07:23:35;;;;;;;3.78;0.80;;;18.40;99.90;;;;;;4952043;29;20035;-82
2022/06/08 07:26:01;;;;;;;2.55;0.88;;;18.40;99.90;;;;;;4959863;28;20039;-83
2022/06/08 07:28:28;;;;;;;1.67;0.93;;;18.40;99.90;;;;;;4949698;28;20034;-82
2022/06/08 07:30:54;;;;;;;0.80;0.80;;;18.50;99.90;;;;;;4962082;28;20039;-83
2022/06/08 07:33:20;;;;;;;0.75;0.75;;;18.40;99.90;;;;;;4943674;29;20033;-84
2022/06/08 07:35:46;;;;;;;2.83;1.08;;;18.50;99.90;;;;;;4954641;29;20034;-83
2022/06/08 07:38:12;;;;;;;0.85;0.70;;;18.50;99.90;;;;;;4954944;29;20023;-83
2022/06/08 07:40:40;;;;;;;0.60;0.57;;;18.60;99.90;;;;;;4953906;29;20098;-83
2022/06/08 07:43:06;;;;;;;4.32;0.85;;;18.60;99.90;;;;;;4954027;29;20023;-84
2022/06/08 07:45:32;;;;;;;2.00;1.00;;;18.70;99.90;;;;;;4954967;29;20027;-83
2022/06/08 07:50:49;;;;;;;1.05;0.75;;;18.90;99.90;;;;;;4954819;28;20055;-82
2022/06/08 07:53:15;;;;;;;2.03;1.10;;;19.00;99.90;;;;;;4941160;28;20027;-83
2022/06/08 07:55:41;;;;;;;9.20;0.90;;;19.00;99.90;;;;;;4960071;28;20368;-83
2022/06/08 07:58:07;;;;;;;0.73;0.73;;;18.90;99.90;;;;;;4960718;28;20411;-86
2022/06/08 08:00:36;;;;;;;1.10;0.70;;;19.00;99.90;;;;;;4937233;28;20023;-83
2022/06/08 08:03:03;;;;;;;1.35;1.25;;;19.10;99.90;;;;;;4939185;29;20039;-83
2022/06/08 08:05:28;;;;;;;1.20;0.82;;;19.20;99.90;;;;;;4945411;28;20105;-82
2022/06/08 08:07:54;;;;;;;3.88;0.70;;;19.30;99.90;;;;;;4957535;28;20183;-83
2022/06/08 08:10:24;;;;;;;1.00;0.90;;;19.30;99.90;;;;;;4956429;28;20038;-83
2022/06/08 08:12:51;;;;;;;1.05;0.98;;;19.20;99.90;;;;;;4951773;28;20081;-83
2022/06/08 08:15:18;;;;;;;1.88;1.13;;;19.10;99.90;;;;;;4956035;28;20023;-84
2022/06/08 08:17:44;;;;;;;1.27;0.90;;;19.10;99.90;;;;;;4953188;28;20146;-83
2022/06/08 08:20:14;;;;;;;3.92;0.80;;;19.20;99.90;;;;;;4959308;28;20134;-82
2022/06/08 08:22:39;;;;;;;1.10;1.10;;;19.20;99.90;;;;;;4933927;29;20159;-82
2022/06/08 08:25:06;;;;;;;1.10;0.95;;;19.20;99.90;;;;;;4961730;28;20648;-82
2022/06/08 08:27:32;;;;;;;1.27;0.98;;;19.10;99.90;;;;;;4957402;28;20098;-83
2022/06/08 08:29:57;;;;;;;0.98;0.98;;;19.10;99.90;;;;;;4955181;28;20509;-83
2022/06/08 08:32:25;;;;;;;0.82;0.73;;;19.10;99.90;;;;;;4952985;28;20046;-82
2022/06/08 08:34:50;;;;;;;1.17;1.08;;;19.20;99.90;;;;;;4967749;28;20571;-82
2022/06/08 08:37:17;;;;;;;0.93;0.82;;;19.40;99.90;;;;;;4949027;28;20031;-80
2022/06/08 08:39:42;;;;;;;3.97;2.42;;;19.60;99.90;;;;;;4957174;28;20023;-82
2022/06/08 08:42:25;;;;;;;1.48;1.00;;;19.70;99.90;;;;;;4956593;28;20369;-83
2022/06/08 08:45:00;;;;;;;1.15;0.90;;;19.90;99.90;;;;;;4946801;28;20028;-81
2022/06/08 08:47:34;;;;;;;6.30;0.90;;;19.90;99.90;;;;;;4954866;28;20027;-82
2022/06/08 08:50:17;;;;;;;1.08;1.00;;;20.00;99.90;;;;;;4947584;28;20415;-82
2022/06/08 08:53:02;;;;;;;0.70;0.70;;;20.00;99.90;;;;;;4955650;28;20480;-82
2022/06/08 08:55:30;;;;;;;2.60;0.70;;;20.00;99.90;;;;;;4954712;28;20035;-82
2022/06/08 08:58:33;;;;;;;0.98;0.98;;;20.10;99.90;;;;;;4952906;29;20098;-82
2022/06/08 09:01:03;;;;;;;1.38;0.88;;;20.10;99.90;;;;;;4943224;28;20043;-82
2022/06/08 09:03:40;;;;;;;1.88;1.00;;;20.10;99.90;;;;;;4955170;28;20054;-81
2022/06/08 09:06:22;;;;;;;5.57;0.70;;;20.40;99.90;;;;;;4957948;29;20035;-82
2022/06/08 09:08:54;;;;;;;2.60;0.88;;;20.40;99.90;;;;;;4957867;29;20483;-82
2022/06/08 09:11:47;;;;;;;3.33;0.55;;;20.40;99.90;;;;;;4956887;29;20110;-82
2022/06/08 09:14:17;;;;;;;2.08;0.80;;;20.50;99.90;;;;;;4962145;28;20046;-82
2022/06/08 09:16:46;;;;;;;2.03;1.02;;;20.50;99.90;;;;;;4969251;28;20050;-82
2022/06/08 09:19:30;;;;;;;1.77;0.80;;;20.60;99.90;;;;;;4936401;28;20390;-82
2022/06/08 09:21:59;;;;;;;3.95;1.25;;;20.60;99.90;;;;;;4957507;28;20046;-81
2022/06/08 09:24:41;;;;;;;0.90;0.68;;;20.70;99.90;;;;;;4939187;28;20038;-81
2022/06/08 09:27:38;;;;;;;3.63;0.90;;;20.70;99.90;;;;;;4952145;29;20039;-83
2022/06/08 09:30:32;;;;;;;0.85;0.85;;;20.50;99.90;;;;;;4957673;29;20053;-83
2022/06/08 09:33:17;;;;;;;1.92;0.90;;;20.50;99.90;;;;;;4957543;28;20031;-82
2022/06/08 09:35:55;;;;;;;1.60;0.90;;;20.60;99.90;;;;;;4940299;29;20062;-83
2022/06/08 09:38:25;;;;;;;1.02;0.90;;;20.70;99.90;;;;;;4958729;28;20054;-82
2022/06/08 09:41:24;;;;;;;2.65;1.25;;;20.80;99.90;;;;;;4958506;28;20027;-82
2022/06/08 09:44:14;;;;;;;3.10;1.02;;;21.00;99.90;;;;;;4957231;29;20059;-82
2022/06/08 09:53:27;;;;;;;0.85;0.77;;;21.20;99.90;;;;;;4957544;29;20099;-82
2022/06/08 09:56:14;;;;;;;2.30;0.70;;;21.30;99.90;;;;;;4953973;29;20032;-82
2022/06/08 09:59:17;;;;;;;2.53;0.77;;;21.30;99.90;;;;;;4956050;29;20043;-82
2022/06/08 10:01:59;;;;;;;1.05;0.77;;;21.30;99.90;;;;;;4957505;29;20035;-84
2022/06/08 10:04:43;;;;;;;1.05;0.70;;;21.30;99.90;;;;;;4939170;29;20039;-83
2022/06/08 10:07:20;;;;;;;3.60;0.82;;;21.40;99.90;;;;;;4940333;29;20027;-83
2022/06/08 10:10:15;;;;;;;2.47;0.70;;;21.50;99.90;;;;;;4939742;29;20054;-83
2022/06/08 10:12:53;;;;;;;2.40;0.80;;;21.50;99.90;;;;;;4938712;29;20078;-81
2022/06/08 10:15:42;;;;;;;1.00;0.68;;;21.40;99.90;;;;;;4941324;29;20038;-82
2022/06/08 10:18:27;;;;;;;0.82;0.70;;;21.40;99.90;;;;;;4957098;29;20098;-83
2022/06/08 10:20:56;;;;;;;2.83;0.65;;;21.50;99.90;;;;;;4939491;29;20023;-82
2022/06/08 10:23:47;;;;;;;0.82;0.82;;;21.60;99.90;;;;;;4956565;29;20510;-83
2022/06/08 10:26:19;;;;;;;2.17;0.52;;;21.50;99.90;;;;;;4956990;29;20388;-82
2022/06/08 10:29:04;;;;;;;3.83;0.60;;;21.60;99.90;;;;;;4938104;29;20024;-83
2022/06/08 10:31:40;;;;;;;1.13;0.50;;;21.70;99.90;;;;;;4935499;29;20031;-83
2022/06/08 10:34:19;;;;;;;3.30;0.95;;;21.70;99.90;;;;;;4949226;29;20032;-83
2022/06/08 10:36:50;;;;;;;0.63;0.60;;;21.80;99.90;;;;;;4937508;29;20384;-84
2022/06/08 10:39:15;;;;;;;5.55;0.70;;;21.90;99.90;;;;;;4937910;29;20187;-83
2022/06/08 10:44:58;;;;;;;0.88;0.52;;;22.10;99.90;;;;;;4960583;28;20085;-84
2022/06/08 10:47:33;;;;;;;1.10;0.70;;;22.30;99.90;;;;;;4947302;28;20487;-82
2022/06/08 10:50:01;;;;;;;0.43;0.43;;;22.30;99.90;;;;;;4956482;28;20066;-81
2022/06/08 10:52:39;;;;;;;0.98;0.68;;;22.50;99.90;;;;;;4946793;29;20031;-82
2022/06/08 10:55:14;;;;;;;4.35;0.60;;;22.60;99.90;;;;;;4937732;29;20028;-82
2022/06/08 10:57:46;;;;;;;3.10;0.60;;;22.70;99.90;;;;;;4967197;28;20522;-80
2022/06/08 11:00:40;;;;;;;5.90;0.70;;;22.90;93.30;;;;;;4973956;28;20031;-80
2022/06/08 11:03:36;;;;;;;0.65;0.65;;;22.80;94.10;;;;;;4953420;28;20036;-84
2022/06/08 11:06:08;;;;;;;1.08;0.60;;;22.80;99.90;;;;;;4948385;28;20023;-83
2022/06/08 11:08:55;;;;;;;4.68;0.60;;;22.80;99.90;;;;;;4956286;29;20031;-84
2022/06/08 11:11:47;;;;;;;1.58;0.55;;;22.80;93.20;;;;;;4953979;29;20528;-82
2022/06/08 11:14:48;;;;;;;0.80;0.50;;;22.90;99.90;;;;;;4955823;28;20015;-83
2022/06/08 11:17:45;;;;;;;3.80;0.85;;;23.00;98.10;;;;;;4935071;29;20027;-84
2022/06/08 11:20:36;;;;;;;1.33;0.68;;;23.10;98.10;;;;;;4949502;28;20181;-81
2022/06/08 11:23:17;;;;;;;2.53;0.47;;;23.20;96.40;;;;;;4954155;28;20027;-85
2022/06/08 11:26:11;;;;;;;1.38;0.63;;;23.20;96.90;;;;;;4944980;28;20031;-84
2022/06/08 11:28:44;;;;;;;0.68;0.50;;;23.20;99.90;;;;;;4956332;28;20039;-82
2022/06/08 11:31:30;;;;;;;1.60;0.52;;;23.30;99.90;;;;;;4970110;28;20456;-81
2022/06/08 11:34:21;;;;;;;2.92;0.88;;;23.30;94.60;;;;;;4950826;28;20031;-80
2022/06/08 11:37:12;;;;;;;0.90;0.55;;;23.30;96.90;;;;;;4930411;29;20368;-83
2022/06/08 11:39:54;;;;;;;1.58;0.80;;;23.30;91.40;;;;;;4937936;29;20418;-80
2022/06/08 11:42:35;;;;;;;3.88;1.02;;;23.20;90.60;;;;;;4950723;28;20051;-81
2022/06/08 11:45:21;;;;;;;2.03;0.57;;;23.30;86.20;;;;;;4940814;29;20055;-82
2022/06/08 11:48:04;;;;;;;0.90;0.60;;;23.30;88.60;;;;;;4939745;29;20380;-81
2022/06/08 11:50:39;;;;;;;3.63;0.70;;;23.30;92.20;;;;;;4937577;29;20023;-81
2022/06/08 11:53:18;;;;;;;2.58;0.70;;;23.40;93.70;;;;;;4937798;29;20020;-81
2022/06/08 11:56:08;;;;;;;5.78;0.90;;;23.50;94.30;;;;;;4961839;28;20031;-82
2022/06/08 11:58:35;;;;;;;0.75;0.68;;;23.60;92.30;;;;;;4963563;28;20130;-80
2022/06/08 12:01:14;;;;;;;0.63;0.60;;;23.80;84.80;;;;;;4972287;28;20033;-80
2022/06/08 12:03:46;;;;;;;0.70;0.40;;;23.70;90.10;;;;;;4954122;29;20035;-80
2022/06/08 12:06:22;;;;;;;0.68;0.68;;;23.70;90.60;;;;;;4950269;28;20035;-79
2022/06/08 12:08:50;;;;;;;2.75;0.57;;;23.80;95.60;;;;;;4955148;29;20031;-85
2022/06/08 12:11:19;;;;;;;3.88;0.73;;;23.90;94.80;;;;;;4956335;28;20038;-83
2022/06/08 12:13:55;;;;;;;0.75;0.60;;;23.80;91.40;;;;;;4954895;28;20020;-82
2022/06/08 12:16:31;;;;;;;1.80;0.82;;;23.70;92.70;;;;;;4950649;28;20031;-81
2022/06/08 12:19:17;;;;;;;1.50;0.60;;;23.60;91.80;;;;;;4944145;28;20035;-80
2022/06/08 12:21:46;;;;;;;1.08;0.70;;;23.30;96.50;;;;;;4947104;28;20046;-80
2022/06/08 12:24:12;;;;;;;4.18;0.70;;;22.90;98.80;;;;;;4953771;28;20023;-80
2022/06/08 12:26:42;;;;;;;2.50;0.85;;;22.50;99.90;;;;;;4954604;28;20031;-79
2022/06/08 12:29:13;;;;;;;1.02;0.60;;;22.30;99.90;;;;;;4969670;28;20027;-79
2022/06/08 12:31:39;;;;;;;1.58;0.63;;;22.20;99.90;;;;;;4959440;28;20095;-78
2022/06/08 12:34:38;;;;;;;3.10;0.70;;;22.10;99.90;;;;;;4970124;28;20031;-81
2022/06/08 12:37:33;;;;;;;6.18;0.75;;;21.90;99.90;;;;;;4953977;28;20479;-82
2022/06/08 12:40:22;;;;;;;2.25;0.60;;;21.80;99.90;;;;;;4929120;28;20494;-83
2022/06/08 12:42:52;;;;;;;1.77;1.02;;;21.80;99.90;;;;;;4946337;28;20039;-83
2022/06/08 12:45:36;;;;;;;2.00;0.60;;;21.80;99.90;;;;;;4958504;28;20038;-82
2022/06/08 12:48:23;;;;;;;2.60;0.60;;;21.90;99.90;;;;;;4960373;28;20066;-81
2022/06/08 12:50:50;;;;;;;3.13;0.98;;;21.90;99.90;;;;;;4953487;28;20367;-81
2022/06/08 12:53:16;;;;;;;3.75;0.90;;;21.90;99.90;;;;;;4937344;29;20043;-80
2022/06/08 12:55:42;;;;;;;2.75;1.00;;;22.10;99.90;;;;;;4960229;28;20467;-81
2022/06/08 12:58:08;;;;;;;2.53;0.70;;;22.10;99.90;;;;;;4955238;28;20110;-82
2022/06/08 13:00:36;;;;;;;0.88;0.70;;;22.20;99.90;;;;;;4969639;28;20028;-81
2022/06/08 13:03:14;;;;;;;2.88;0.65;;;22.20;99.90;;;;;;4964285;28;20038;-82
2022/06/08 13:05:40;;;;;;;4.20;0.70;;;22.40;99.90;;;;;;4969584;28;20023;-82
2022/06/08 13:08:06;;;;;;;3.78;1.00;;;22.60;99.90;;;;;;4949660;28;20041;-82
2022/06/08 13:10:34;;;;;;;2.55;0.70;;;22.70;99.90;;;;;;4950318;28;20479;-81
2022/06/08 13:13:03;;;;;;;1.48;0.80;;;22.80;99.90;;;;;;4938021;28;20030;-81
2022/06/08 13:15:37;;;;;;;1.13;0.77;;;23.00;99.90;;;;;;4951640;28;20043;-80
2022/06/08 13:18:05;;;;;;;1.50;0.80;;;23.10;99.90;;;;;;4951915;28;20023;-83
2022/06/08 13:20:34;;;;;;;2.75;0.80;;;23.20;99.90;;;;;;4959459;28;20126;-81
2022/06/08 13:23:02;;;;;;;1.33;0.50;;;23.30;99.90;;;;;;4935774;29;20028;-82
2022/06/08 13:25:28;;;;;;;0.65;0.65;;;23.50;99.90;;;;;;4950240;28;20031;-82
2022/06/08 13:27:54;;;;;;;0.82;0.65;;;23.60;99.90;;;;;;4954729;28;20023;-81
2022/06/08 13:30:23;;;;;;;0.70;0.50;;;23.70;96.20;;;;;;4951053;28;20038;-81
2022/06/08 13:32:49;;;;;;;1.75;0.70;;;23.70;90.10;;;;;;4935415;29;20368;-82
2022/06/08 13:35:19;;;;;;;1.27;0.75;;;23.70;90.10;;;;;;4956385;28;20077;-82
2022/06/08 13:37:48;;;;;;;11.65;1.92;;;23.60;93.90;;;;;;4945521;28;20031;-82
2022/06/08 13:40:33;;;;;;;1.75;0.85;;;23.50;97.70;;;;;;4947703;29;20118;-82